createdAt,value
2019-06-01T00:00:10.923Z,101971.94
2019-06-01T00:03:03.004Z,101971.94
2019-06-01T00:06:06.664Z,101973.41
2019-06-01T00:09:11.049Z,101961.99
2019-06-01T00:12:15.010Z,101967.62
2019-06-01T00:15:18.807Z,101966.53
2019-06-01T00:18:22.744Z,101962.53
2019-06-01T00:21:26.442Z,101956.83
2019-06-01T00:24:30.173Z,101964.48
2019-06-01T00:27:33.892Z,101956.00
2019-06-01T00:30:37.918Z,101956.00
2019-06-01T00:33:41.630Z,101955.46
2019-06-01T00:36:45.622Z,101957.16
2019-06-01T00:39:50.062Z,101959.61
2019-06-01T00:42:54.171Z,101959.61
2019-06-01T00:45:57.853Z,101951.77
2019-06-01T00:49:01.804Z,101953.73
2019-06-01T00:52:05.508Z,101944.63
2019-06-01T00:55:09.540Z,101944.63
2019-06-01T00:58:13.278Z,101941.41
2019-06-01T01:01:17.306Z,101941.41
2019-06-01T01:04:21.011Z,101946.09
2019-06-01T01:07:24.959Z,101947.30
2019-06-01T01:10:28.674Z,101956.36
2019-06-01T01:13:33.145Z,101960.80
2019-06-01T01:16:36.874Z,101961.96
2019-06-01T01:19:41.127Z,101957.73
2019-06-01T01:22:46.101Z,101957.73
2019-06-01T01:25:50.486Z,101963.15
2019-06-01T01:28:54.923Z,101963.15
2019-06-01T01:31:58.721Z,101949.28
2019-06-01T01:35:02.453Z,101949.28
2019-06-01T01:38:06.430Z,101949.13
2019-06-01T01:41:10.450Z,101957.76
2019-06-01T01:44:14.158Z,101956.20
2019-06-01T01:47:17.847Z,101950.22
2019-06-01T01:50:23.364Z,101951.80
2019-06-01T01:53:27.423Z,101940.31
2019-06-01T01:56:31.446Z,101931.68
2019-06-01T01:59:35.182Z,101931.68
2019-06-01T02:02:39.175Z,101937.59
2019-06-01T02:05:43.029Z,101935.69
2019-06-01T02:08:46.728Z,101936.02
2019-06-01T02:11:51.399Z,101928.71
2019-06-01T02:14:55.652Z,101927.45
2019-06-01T02:18:00.625Z,101927.05
2019-06-01T02:21:04.580Z,101921.56
2019-06-01T02:24:08.275Z,101921.93
2019-06-01T02:27:12.004Z,101923.42
2019-06-01T02:30:17.397Z,101920.28
2019-06-01T02:33:21.081Z,101917.47
2019-06-01T02:36:24.805Z,101916.96
2019-06-01T02:39:28.495Z,101914.30
2019-06-01T02:42:32.672Z,101912.02
2019-06-01T02:45:36.812Z,101912.02
2019-06-01T02:48:40.725Z,101913.82
2019-06-01T02:51:44.458Z,101912.95
2019-06-01T02:54:48.417Z,101914.22
2019-06-01T02:57:52.341Z,101907.76
2019-06-01T03:01:30.041Z,101910.14
2019-06-01T03:04:33.888Z,101918.05
2019-06-01T03:07:39.391Z,101912.45
2019-06-01T03:10:44.084Z,101917.87
2019-06-01T03:13:51.497Z,101908.48
2019-06-01T03:16:59.748Z,101910.03
2019-06-01T03:20:06.287Z,101911.27
2019-06-01T03:23:12.579Z,101906.78
2019-06-01T03:26:20.145Z,101909.27
2019-06-01T03:29:27.161Z,101906.45
2019-06-01T03:32:36.656Z,101907.39
2019-06-01T03:35:36.723Z,101905.12
2019-06-01T03:38:40.865Z,101901.39
2019-06-01T03:41:44.655Z,101897.38
2019-06-01T03:44:48.361Z,101907.96
2019-06-01T03:47:52.546Z,101910.84
2019-06-01T03:50:56.398Z,101909.55
2019-06-01T03:54:00.880Z,101906.77
2019-06-01T03:57:05.339Z,101909.17
2019-06-01T04:00:09.542Z,101896.73
2019-06-01T04:03:13.302Z,101899.69
2019-06-01T04:06:17.568Z,101904.05
2019-06-01T04:09:21.890Z,101897.96
2019-06-01T04:12:25.599Z,101895.88
2019-06-01T04:15:29.603Z,101892.31
2019-06-01T04:18:33.298Z,101899.00
2019-06-01T04:21:36.978Z,101906.23
2019-06-01T04:24:40.695Z,101900.92
2019-06-01T04:27:44.458Z,101905.05
2019-06-01T04:30:48.435Z,101903.72
2019-06-01T04:33:52.130Z,101901.70
2019-06-01T04:36:56.374Z,101899.61
2019-06-01T04:40:00.066Z,101905.43
2019-06-01T04:43:05.635Z,101909.28
2019-06-01T04:46:10.347Z,101899.16
2019-06-01T04:49:15.048Z,101893.00
2019-06-01T04:52:18.735Z,101896.94
2019-06-01T04:55:22.429Z,101889.69
2019-06-01T04:58:26.595Z,101893.42
2019-06-01T05:01:30.858Z,101897.22
2019-06-01T05:04:34.802Z,101894.05
2019-06-01T05:07:38.706Z,101897.96
2019-06-01T05:10:42.426Z,101901.16
2019-06-01T05:13:46.402Z,101901.24
2019-06-01T05:16:50.405Z,101898.09
2019-06-01T05:19:54.543Z,101897.27
2019-06-01T05:22:58.223Z,101898.32
2019-06-01T05:26:02.621Z,101897.87
2019-06-01T05:29:07.466Z,101895.77
2019-06-01T05:32:12.521Z,101899.40
2019-06-01T05:35:17.921Z,101900.63
2019-06-01T05:38:21.695Z,101897.86
2019-06-01T05:41:25.999Z,101897.11
2019-06-01T05:44:29.676Z,101899.11
2019-06-01T05:47:33.369Z,101890.77
2019-06-01T05:50:37.064Z,101889.61
2019-06-01T05:53:40.783Z,101889.47
2019-06-01T05:56:44.832Z,101882.38
2019-06-01T05:59:49.050Z,101878.88
2019-06-01T06:02:52.850Z,101875.39
2019-06-01T06:05:56.556Z,101880.16
2019-06-01T06:09:00.275Z,101880.50
2019-06-01T06:12:04.060Z,101875.71
2019-06-01T06:15:08.523Z,101883.91
2019-06-01T06:18:13.666Z,101876.88
2019-06-01T06:21:18.545Z,101871.45
2019-06-01T06:24:22.801Z,101868.38
2019-06-01T06:27:26.485Z,101868.05
2019-06-01T06:30:30.207Z,101872.84
2019-06-01T06:33:36.831Z,101868.73
2019-06-01T06:36:39.632Z,101867.08
2019-06-01T06:39:43.386Z,101867.92
2019-06-01T06:42:47.086Z,101867.68
2019-06-01T06:45:50.775Z,101858.77
2019-06-01T06:48:55.022Z,101859.43
2019-06-01T06:51:58.822Z,101854.06
2019-06-01T06:55:02.626Z,101846.52
2019-06-01T06:58:06.327Z,101845.94
2019-06-01T07:01:12.163Z,101851.17
2019-06-01T07:04:17.084Z,101849.73
2019-06-01T07:07:21.700Z,101854.80
2019-06-01T07:10:26.330Z,101847.98
2019-06-01T07:13:31.553Z,101843.69
2019-06-01T07:16:35.297Z,101851.63
2019-06-01T07:19:38.995Z,101849.41
2019-06-01T07:22:42.982Z,101872.16
2019-06-01T07:25:46.966Z,101857.94
2019-06-01T07:28:50.704Z,101877.27
2019-06-01T07:31:54.419Z,101858.52
2019-06-01T07:35:00.984Z,101854.91
2019-06-01T07:38:04.258Z,101854.85
2019-06-01T07:41:07.980Z,101853.51
2019-06-01T07:44:11.705Z,101852.59
2019-06-01T07:47:15.403Z,101859.73
2019-06-01T07:50:19.814Z,101852.89
2019-06-01T07:53:24.180Z,101851.41
2019-06-01T07:56:29.331Z,101859.43
2019-06-01T07:59:33.459Z,101852.27
2019-06-01T08:02:37.351Z,101858.73
2019-06-01T08:05:41.682Z,101863.48
2019-06-01T08:08:45.735Z,101863.11
2019-06-01T08:11:49.463Z,101856.37
2019-06-01T08:14:53.548Z,101861.17
2019-06-01T08:17:57.508Z,101865.56
2019-06-01T08:21:01.209Z,101853.05
2019-06-01T08:24:05.112Z,101845.72
2019-06-01T08:27:08.848Z,101860.27
2019-06-01T08:30:13.341Z,101855.56
2019-06-01T08:33:17.347Z,101848.44
2019-06-01T08:36:21.034Z,101860.17
2019-06-01T08:39:25.255Z,101864.80
2019-06-01T08:42:29.559Z,101847.22
2019-06-01T08:45:37.272Z,101850.07
2019-06-01T08:48:38.871Z,101846.31
2019-06-01T08:51:42.573Z,101840.98
2019-06-01T08:54:46.994Z,101839.83
2019-06-01T08:57:50.972Z,101842.16
2019-06-01T09:00:54.891Z,101840.36
2019-06-01T09:03:58.585Z,101846.64
2019-06-01T09:07:02.721Z,101848.30
2019-06-01T09:10:07.967Z,101833.37
2019-06-01T09:13:11.721Z,101844.52
2019-06-01T09:16:15.448Z,101847.63
2019-06-01T09:19:20.097Z,101836.58
2019-06-01T09:22:23.871Z,101842.52
2019-06-01T09:25:27.911Z,101847.50
2019-06-01T09:28:32.157Z,101837.86
2019-06-01T09:31:36.731Z,101837.05
2019-06-01T09:34:40.894Z,101827.77
2019-06-01T09:37:45.872Z,101823.44
2019-06-01T09:40:50.370Z,101826.99
2019-06-01T09:43:54.372Z,101825.45
2019-06-01T09:46:58.132Z,101821.05
2019-06-01T09:50:01.833Z,101811.72
2019-06-01T09:53:05.899Z,101813.71
2019-06-01T09:56:09.616Z,101825.47
2019-06-01T09:59:13.333Z,101834.34
2019-06-01T10:02:17.432Z,101825.70
2019-06-01T10:05:21.189Z,101825.67
2019-06-01T10:08:24.870Z,101822.98
2019-06-01T10:11:29.839Z,101826.98
2019-06-01T10:14:34.171Z,101820.61
2019-06-01T10:17:39.036Z,101815.64
2019-06-01T10:20:43.235Z,101825.03
2019-06-01T10:23:49.664Z,101821.09
2019-06-01T10:26:52.696Z,101816.14
2019-06-01T10:29:56.429Z,101824.16
2019-06-01T10:33:00.429Z,101814.16
2019-06-01T10:36:19.309Z,101816.60
2019-06-01T10:39:10.101Z,101817.90
2019-06-01T10:42:13.802Z,101813.79
2019-06-01T10:45:17.641Z,101811.72
2019-06-01T10:48:21.600Z,101810.66
2019-06-01T10:51:25.363Z,101816.20
2019-06-01T10:54:29.304Z,101823.91
2019-06-01T10:57:34.497Z,101807.44
2019-06-01T11:00:45.505Z,101804.82
2019-06-01T11:03:43.657Z,101808.56
2019-06-01T11:06:48.855Z,101814.17
2019-06-01T11:09:52.725Z,101797.13
2019-06-01T11:12:56.674Z,101801.88
2019-06-01T11:16:00.442Z,101807.09
2019-06-01T11:19:04.603Z,101801.00
2019-06-01T11:22:08.370Z,101798.79
2019-06-01T11:25:12.316Z,101794.13
2019-06-01T11:28:16.338Z,101791.74
2019-06-01T11:31:20.646Z,101791.41
2019-06-01T11:34:24.454Z,101787.00
2019-06-01T11:37:28.164Z,101781.34
2019-06-01T11:40:32.176Z,101772.84
2019-06-01T11:43:36.496Z,101769.03
2019-06-01T11:46:41.090Z,101788.84
2019-06-01T11:49:45.122Z,101782.16
2019-06-01T11:52:48.834Z,101778.34
2019-06-01T11:55:52.541Z,101778.27
2019-06-01T11:58:56.232Z,101773.72
2019-06-01T12:02:00.270Z,101767.29
2019-06-01T12:05:04.384Z,101776.56
2019-06-01T12:08:08.136Z,101767.48
2019-06-01T12:11:11.833Z,101761.94
2019-06-01T12:14:15.544Z,101765.15
2019-06-01T12:17:19.548Z,101752.78
2019-06-01T12:20:23.868Z,101758.12
2019-06-01T12:23:28.034Z,101754.87
2019-06-01T12:26:32.104Z,101753.09
2019-06-01T12:29:35.899Z,101751.97
2019-06-01T12:32:39.911Z,101746.84
2019-06-01T12:35:44.007Z,101753.59
2019-06-01T12:38:54.056Z,101738.71
2019-06-01T12:41:58.317Z,101733.60
2019-06-01T12:45:02.240Z,101733.48
2019-06-01T12:48:06.175Z,101745.22
2019-06-01T12:51:09.860Z,101743.45
2019-06-01T12:54:13.808Z,101746.20
2019-06-01T12:57:17.523Z,101743.16
2019-06-01T13:00:21.597Z,101743.87
2019-06-01T13:03:25.599Z,101734.59
2019-06-01T13:06:29.892Z,101733.59
2019-06-01T13:09:33.584Z,101717.36
2019-06-01T13:12:37.272Z,101733.66
2019-06-01T13:15:41.230Z,101728.66
2019-06-01T13:18:45.400Z,101725.23
2019-06-01T13:21:50.172Z,101720.03
2019-06-01T13:24:54.388Z,101716.32
2019-06-01T13:27:58.325Z,101711.47
2019-06-01T13:31:02.336Z,101711.01
2019-06-01T13:34:06.096Z,101711.20
2019-06-01T13:37:09.883Z,101706.31
2019-06-01T13:40:14.258Z,101704.34
2019-06-01T13:43:17.951Z,101701.58
2019-06-01T13:46:21.636Z,101706.38
2019-06-01T13:49:25.599Z,101702.61
2019-06-01T13:52:29.288Z,101698.43
2019-06-01T13:55:33.001Z,101697.83
2019-06-01T13:58:37.305Z,101711.57
2019-06-01T14:01:41.330Z,101701.89
2019-06-01T14:04:45.360Z,101699.26
2019-06-01T14:07:49.518Z,101688.73
2019-06-01T14:10:53.321Z,101700.48
2019-06-01T14:13:57.368Z,101695.27
2019-06-01T14:17:01.353Z,101693.38
2019-06-01T14:20:05.335Z,101698.11
2019-06-01T14:23:09.616Z,101701.05
2019-06-01T14:26:13.856Z,101700.61
2019-06-01T14:29:17.571Z,101702.98
2019-06-01T14:32:21.512Z,101712.64
2019-06-01T14:35:25.620Z,101700.30
2019-06-01T14:38:45.925Z,101701.50
2019-06-01T14:41:34.764Z,101693.59
2019-06-01T14:44:38.766Z,101702.84
2019-06-01T14:47:42.788Z,101699.98
2019-06-01T14:50:47.516Z,101692.27
2019-06-01T14:53:51.676Z,101693.98
2019-06-01T14:56:55.942Z,101694.05
2019-06-01T14:59:59.594Z,101693.33
2019-06-01T15:03:03.802Z,101690.42
2019-06-01T15:06:08.200Z,101699.64
2019-06-01T15:09:18.990Z,101693.20
2019-06-01T15:12:17.759Z,101700.70
2019-06-01T15:15:21.919Z,101696.28
2019-06-01T15:18:25.997Z,101693.45
2019-06-01T15:21:30.025Z,101693.75
2019-06-01T15:24:34.024Z,101693.45
2019-06-01T15:27:37.780Z,101701.00
2019-06-01T15:30:41.870Z,101697.71
2019-06-01T15:33:45.858Z,101698.76
2019-06-01T15:36:49.600Z,101694.58
2019-06-01T15:39:54.580Z,101694.35
2019-06-01T15:42:59.373Z,101699.36
2019-06-01T15:46:03.168Z,101701.14
2019-06-01T15:49:07.361Z,101697.84
2019-06-01T15:52:11.054Z,101702.86
2019-06-01T15:55:15.674Z,101705.51
2019-06-01T15:58:19.638Z,101694.45
2019-06-01T16:01:23.349Z,101697.50
2019-06-01T16:04:27.057Z,101701.91
2019-06-01T16:07:30.993Z,101706.70
2019-06-01T16:10:34.933Z,101699.38
2019-06-01T16:13:38.642Z,101699.64
2019-06-01T16:16:42.338Z,101696.08
2019-06-01T16:19:46.289Z,101697.67
2019-06-01T16:22:50.309Z,101692.98
2019-06-01T16:26:06.650Z,101696.92
2019-06-01T16:29:00.527Z,101697.81
2019-06-01T16:32:05.018Z,101700.16
2019-06-01T16:35:09.357Z,101696.59
2019-06-01T16:38:13.148Z,101698.80
2019-06-01T16:41:17.444Z,101694.73
2019-06-01T16:44:21.201Z,101698.66
2019-06-01T16:47:25.288Z,101697.67
2019-06-01T16:50:29.010Z,101687.34
2019-06-01T16:53:32.991Z,101687.33
2019-06-01T16:56:36.713Z,101696.58
2019-06-01T16:59:40.803Z,101698.66
2019-06-01T17:02:44.592Z,101690.41
2019-06-01T17:05:48.322Z,101695.52
2019-06-01T17:08:52.369Z,101693.18
2019-06-01T17:11:56.719Z,101695.92
2019-06-01T17:15:00.926Z,101690.47
2019-06-01T17:18:08.622Z,101695.73
2019-06-01T17:21:10.956Z,101702.83
2019-06-01T17:24:14.673Z,101697.91
2019-06-01T17:27:18.665Z,101700.98
2019-06-01T17:30:22.432Z,101702.17
2019-06-01T17:33:26.435Z,101697.14
2019-06-01T17:36:30.534Z,101692.69
2019-06-01T17:39:34.248Z,101704.44
2019-06-01T17:42:38.313Z,101707.02
2019-06-01T17:45:42.155Z,101715.13
2019-06-01T17:48:46.029Z,101707.58
2019-06-01T17:51:49.825Z,101716.51
2019-06-01T17:54:54.308Z,101714.19
2019-06-01T17:57:58.269Z,101715.04
2019-06-01T18:01:04.095Z,101717.05
2019-06-01T18:04:08.146Z,101713.36
2019-06-01T18:07:12.238Z,101711.95
2019-06-01T18:10:17.116Z,101715.02
2019-06-01T18:13:21.207Z,101708.76
2019-06-01T18:16:25.047Z,101713.56
2019-06-01T18:19:28.776Z,101720.80
2019-06-01T18:22:32.771Z,101710.98
2019-06-01T18:25:36.555Z,101708.78
2019-06-01T18:28:40.266Z,101713.77
2019-06-01T18:31:44.404Z,101709.34
2019-06-01T18:34:48.421Z,101718.96
2019-06-01T18:37:52.732Z,101719.83
2019-06-01T18:41:09.462Z,101722.20
2019-06-01T18:44:03.589Z,101721.64
2019-06-01T18:47:07.852Z,101728.09
2019-06-01T18:50:17.252Z,101722.55
2019-06-01T18:53:19.669Z,101728.08
2019-06-01T18:56:23.390Z,101721.45
2019-06-01T18:59:27.694Z,101723.61
2019-06-01T19:02:31.494Z,101731.73
2019-06-01T19:05:35.815Z,101737.31
2019-06-01T19:08:39.557Z,101735.05
2019-06-01T19:11:43.531Z,101741.56
2019-06-01T19:14:47.253Z,101734.63
2019-06-01T19:17:51.006Z,101736.56
2019-06-01T19:20:54.978Z,101746.17
2019-06-01T19:23:58.700Z,101743.98
2019-06-01T19:27:02.470Z,101735.03
2019-06-01T19:30:08.877Z,101734.06
2019-06-01T19:33:15.337Z,101743.48
2019-06-01T19:36:19.148Z,101742.69
2019-06-01T19:39:23.912Z,101744.61
2019-06-01T19:42:27.611Z,101749.02
2019-06-01T19:45:31.389Z,101748.23
2019-06-01T19:48:35.089Z,101744.02
2019-06-01T19:51:38.784Z,101744.98
2019-06-01T19:54:42.488Z,101746.12
2019-06-01T19:57:46.190Z,101753.80
2019-06-01T20:00:50.141Z,101756.86
2019-06-01T20:03:54.074Z,101744.72
2019-06-01T20:06:57.771Z,101746.22
2019-06-01T20:10:01.808Z,101750.63
2019-06-01T20:13:05.868Z,101742.16
2019-06-01T20:16:10.723Z,101744.46
2019-06-01T20:19:15.602Z,101742.86
2019-06-01T20:22:19.445Z,101752.83
2019-06-01T20:25:23.478Z,101746.63
2019-06-01T20:28:27.436Z,101747.78
2019-06-01T20:31:31.504Z,101748.52
2019-06-01T20:34:35.200Z,101754.20
2019-06-01T20:37:39.514Z,101743.19
2019-06-01T20:40:43.305Z,101751.89
2019-06-01T20:43:47.300Z,101754.09
2019-06-01T20:46:51.319Z,101751.32
2019-06-01T20:49:55.346Z,101756.14
2019-06-01T20:52:59.152Z,101750.41
2019-06-01T20:56:02.872Z,101746.44
2019-06-01T20:59:07.180Z,101741.40
2019-06-01T21:02:10.925Z,101739.92
2019-06-01T21:05:16.137Z,101741.25
2019-06-01T21:08:20.369Z,101745.52
2019-06-01T21:11:24.540Z,101747.84
2019-06-01T21:14:28.496Z,101749.18
2019-06-01T21:17:32.517Z,101743.69
2019-06-01T21:20:36.482Z,101743.80
2019-06-01T21:23:40.470Z,101738.56
2019-06-01T21:26:44.648Z,101738.56
2019-06-01T21:29:48.759Z,101741.20
2019-06-01T21:32:52.523Z,101745.62
2019-06-01T21:35:56.890Z,101749.30
2019-06-01T21:39:00.666Z,101749.30
2019-06-01T21:42:04.522Z,101748.13
2019-06-01T21:45:08.966Z,101752.74
2019-06-01T21:48:12.764Z,101753.65
2019-06-01T21:51:17.648Z,101764.36
2019-06-01T21:54:22.287Z,101753.98
2019-06-01T21:57:26.667Z,101753.98
2019-06-01T22:00:34.082Z,101752.09
2019-06-01T22:03:37.826Z,101747.09
2019-06-01T22:06:41.529Z,101754.56
2019-06-01T22:09:45.244Z,101754.56
2019-06-01T22:12:49.014Z,101749.65
2019-06-01T22:15:54.374Z,101751.09
2019-06-01T22:18:58.426Z,101736.92
2019-06-01T22:22:03.052Z,101736.92
2019-06-01T22:25:07.039Z,101736.78
2019-06-01T22:28:11.183Z,101738.20
2019-06-01T22:31:15.474Z,101737.22
2019-06-01T22:34:20.584Z,101739.58
2019-06-01T22:37:25.493Z,101746.22
2019-06-01T22:40:29.771Z,101736.20
2019-06-01T22:43:45.431Z,101736.23
2019-06-01T22:46:39.797Z,101723.55
2019-06-01T22:49:43.895Z,101723.55
2019-06-01T22:52:47.953Z,101726.34
2019-06-01T22:55:51.662Z,101732.70
2019-06-01T22:58:55.724Z,101731.02
2019-06-01T23:01:59.541Z,101732.42
2019-06-01T23:05:03.284Z,101721.19
2019-06-01T23:08:06.997Z,101727.67
2019-06-01T23:11:10.790Z,101728.61
2019-06-01T23:14:14.833Z,101726.26
2019-06-01T23:17:18.541Z,101722.48
2019-06-01T23:20:22.267Z,101721.62
2019-06-01T23:23:26.084Z,101723.19
2019-06-01T23:26:30.312Z,101720.33
2019-06-01T23:29:34.177Z,101715.20
2019-06-01T23:32:38.157Z,101717.55
2019-06-01T23:35:42.181Z,101713.74
2019-06-01T23:38:45.894Z,101719.39
2019-06-01T23:41:49.612Z,101709.80
2019-06-01T23:44:53.327Z,101708.99
2019-06-01T23:47:57.045Z,101708.81
2019-06-01T23:51:00.767Z,101709.25
2019-06-01T23:54:04.555Z,101716.52
2019-06-01T23:57:08.917Z,101717.56
